Time;durP1;ratioP1;P1;durP2;ratioP2;P2;SDS_P1;SDS_P2;PMS_P1;PMS_P2;Temp;Humidity;BMP_temperature;BMP_pressure;BME280_temperature;BME280_humidity;BME280_pressure;Samples;Min_cycle;Max_cycle;Signal;HPM_P1;HPM_P2
2022/09/30 00:00:56;;;;;;;10.95;9.35;;;;;;;15.07;100.00;99443.25;5059035;28;20416;-66
2022/09/30 00:03:22;;;;;;;13.05;8.68;;;;;;;15.05;100.00;99439.88;5052235;28;20029;-67
2022/09/30 00:06:01;;;;;;;12.98;9.80;;;;;;;15.04;100.00;99436.38;5047609;28;20063;-67
2022/09/30 00:08:26;;;;;;;11.85;9.00;;;;;;;15.04;100.00;99439.06;5052526;28;20579;-66
2022/09/30 00:11:07;;;;;;;12.18;9.50;;;;;;;15.06;100.00;99444.28;5067416;28;20028;-66
2022/09/30 00:13:35;;;;;;;11.07;8.35;;;;;;;15.05;100.00;99446.13;5066374;28;20505;-66
2022/09/30 00:16:02;;;;;;;11.98;8.63;;;;;;;14.84;100.00;99419.03;5051616;28;20055;-66
2022/09/30 00:18:28;;;;;;;12.88;9.57;;;;;;;14.98;100.00;99445.19;5047400;28;20028;-66
2022/09/30 00:20:53;;;;;;;13.98;9.77;;;;;;;14.88;100.00;99431.13;5047449;28;20412;-66
2022/09/30 00:23:20;;;;;;;14.90;10.57;;;;;;;14.93;100.00;99438.66;5048573;28;20017;-66
2022/09/30 00:25:47;;;;;;;12.38;10.60;;;;;;;14.84;100.00;99427.13;5067140;28;20392;-66
2022/09/30 00:28:13;;;;;;;14.27;11.27;;;;;;;14.93;100.00;99435.97;5047695;28;20079;-67
2022/09/30 00:30:39;;;;;;;16.52;11.25;;;;;;;14.85;100.00;99442.28;5047386;28;20475;-66
2022/09/30 00:33:04;;;;;;;13.35;10.85;;;;;;;14.79;100.00;99431.38;5046938;28;20064;-66
2022/09/30 00:35:29;;;;;;;13.93;11.65;;;;;;;14.84;100.00;99440.63;5047424;28;20040;-66
2022/09/30 00:37:55;;;;;;;12.68;10.40;;;;;;;14.71;100.00;99416.09;5047193;28;20074;-66
2022/09/30 00:40:21;;;;;;;12.93;11.15;;;;;;;14.80;100.00;99438.47;5047236;28;20035;-66
2022/09/30 00:42:47;;;;;;;12.02;10.55;;;;;;;14.77;100.00;99438.81;5047372;28;20059;-66
2022/09/30 00:45:13;;;;;;;17.02;11.77;;;;;;;14.67;100.00;99428.25;5060887;28;20036;-66
2022/09/30 00:48:06;;;;;;;13.98;11.15;;;;;;;14.74;100.00;99445.41;5067545;28;20048;-66
2022/09/30 00:50:37;;;;;;;11.93;10.73;;;;;;;14.72;100.00;99443.91;5050603;28;20033;-66
2022/09/30 00:53:41;;;;;;;14.40;10.75;;;;;;;14.70;100.00;99440.56;5047220;28;20166;-66
2022/09/30 00:56:11;;;;;;;13.20;10.98;;;;;;;14.64;100.00;99447.53;5047008;28;20043;-66
2022/09/30 00:58:53;;;;;;;12.65;11.00;;;;;;;14.66;100.00;99450.88;5051220;28;20082;-66
2022/09/30 01:01:20;;;;;;;14.60;11.00;;;;;;;14.55;100.00;99445.94;5051329;28;20042;-66
2022/09/30 01:04:03;;;;;;;14.98;11.57;;;;;;;14.60;100.00;99465.09;5051032;28;20505;-66
2022/09/30 01:06:29;;;;;;;14.07;11.35;;;;;;;14.60;100.00;99464.25;5069326;28;20035;-66
2022/09/30 01:08:57;;;;;;;16.15;12.35;;;;;;;14.60;100.00;99464.25;5069658;28;20028;-66
2022/09/30 01:11:22;;;;;;;15.27;12.68;;;;;;;14.56;100.00;99458.41;5050755;28;20100;-66
2022/09/30 01:13:52;;;;;;;13.25;11.85;;;;;;;14.58;100.00;99459.06;5050969;28;20063;-66
2022/09/30 01:16:27;;;;;;;14.27;11.85;;;;;;;14.55;100.00;99453.19;5052468;28;20041;-66
2022/09/30 01:19:04;;;;;;;12.43;11.07;;;;;;;14.54;100.00;99448.81;5048920;28;20041;-66
2022/09/30 01:21:42;;;;;;;13.07;10.52;;;;;;;14.54;100.00;99449.63;5059889;28;20060;-66
2022/09/30 01:24:53;;;;;;;11.63;9.60;;;;;;;14.52;100.00;99459.78;5048373;28;20036;-66
2022/09/30 01:27:22;;;;;;;11.85;9.52;;;;;;;14.54;100.00;99457.72;5049355;28;20029;-66
2022/09/30 01:30:05;;;;;;;12.48;11.02;;;;;;;14.52;100.00;99459.78;5063975;28;20493;-66
2022/09/30 01:32:49;;;;;;;12.27;9.85;;;;;;;14.55;100.00;99472.91;5067775;28;20600;-66
2022/09/30 01:35:39;;;;;;;12.07;10.07;;;;;;;14.53;100.00;99466.84;5061161;28;20033;-72
2022/09/30 01:38:12;;;;;;;12.18;10.40;;;;;;;14.52;100.00;99467.88;5061832;28;20272;-72
2022/09/30 01:41:07;;;;;;;13.25;10.15;;;;;;;14.51;100.00;99446.47;5056225;28;20040;-72
2022/09/30 01:43:35;;;;;;;12.02;9.70;;;;;;;14.51;100.00;99468.06;5062580;28;20035;-72
2022/09/30 01:46:09;;;;;;;11.75;9.80;;;;;;;14.53;100.00;99453.34;5062572;28;20043;-72
2022/09/30 01:49:07;;;;;;;13.30;10.07;;;;;;;14.52;100.00;99467.03;5062127;28;20048;-66
2022/09/30 01:51:47;;;;;;;10.38;9.20;;;;;;;14.46;100.00;99457.81;5064263;28;20060;-67
2022/09/30 01:54:23;;;;;;;11.25;9.57;;;;;;;14.52;100.00;99470.56;5065432;28;20039;-67
2022/09/30 01:56:57;;;;;;;13.13;9.25;;;;;;;14.60;100.00;99469.66;5054144;28;20111;-67
2022/09/30 01:59:43;;;;;;;11.77;10.18;;;;;;;14.60;100.00;99465.09;5049718;28;20024;-67
2022/09/30 02:02:26;;;;;;;11.45;9.40;;;;;;;14.54;100.00;99449.63;5052252;28;20063;-67
2022/09/30 02:05:09;;;;;;;10.80;9.70;;;;;;;14.63;100.00;99461.19;5069801;28;20025;-67
2022/09/30 02:07:50;;;;;;;11.70;10.20;;;;;;;14.61;100.00;99455.16;5070002;28;20111;-67
2022/09/30 02:10:27;;;;;;;13.75;10.63;;;;;;;14.67;100.00;99455.25;5063504;28;20025;-73
2022/09/30 02:13:04;;;;;;;11.50;10.30;;;;;;;14.67;100.00;99449.03;5064757;28;20033;-73
2022/09/30 02:15:43;;;;;;;11.07;9.90;;;;;;;14.67;100.00;99455.25;5059245;28;20028;-73
2022/09/30 02:18:18;;;;;;;13.93;10.48;;;;;;;14.69;100.00;99447.81;5056943;28;20391;-73
2022/09/30 02:20:48;;;;;;;13.40;11.15;;;;;;;14.61;100.00;99441.66;5055355;28;20162;-73
2022/09/30 02:23:21;;;;;;;14.85;11.48;;;;;;;14.70;100.00;99454.06;5064339;28;20059;-73
2022/09/30 02:25:53;;;;;;;14.38;12.27;;;;;;;14.57;100.00;99433.06;5055912;28;20089;-73
2022/09/30 02:28:26;;;;;;;11.68;10.52;;;;;;;14.72;100.00;99457.41;5059634;28;20029;-73
2022/09/30 02:30:56;;;;;;;15.57;12.10;;;;;;;14.66;100.00;99460.84;5057384;28;20024;-73
2022/09/30 02:33:48;;;;;;;14.25;11.93;;;;;;;14.69;100.00;99455.91;5065775;28;20040;-73
2022/09/30 02:36:32;;;;;;;14.80;12.57;;;;;;;14.70;100.00;99463.00;5056655;28;20132;-73
2022/09/30 02:39:05;;;;;;;15.52;12.20;;;;;;;14.52;100.00;99437.34;5063559;28;20734;-73
2022/09/30 02:41:38;;;;;;;14.75;12.20;;;;;;;14.58;100.00;99447.41;5066041;28;20040;-73
2022/09/30 02:44:04;;;;;;;15.55;13.00;;;;;;;14.72;100.00;99463.66;5059720;28;20117;-73
2022/09/30 02:47:14;;;;;;;15.90;13.00;;;;;;;14.72;100.00;99466.34;5060102;28;20044;-73
2022/09/30 02:49:47;;;;;;;16.27;13.02;;;;;;;14.71;100.00;99471.94;5049712;28;20778;-73
2022/09/30 02:52:43;;;;;;;15.50;13.70;;;;;;;14.71;100.00;99472.78;5056228;28;20020;-73
2022/09/30 02:55:18;;;;;;;15.00;12.77;;;;;;;14.65;100.00;99459.16;5053445;28;20060;-73
2022/09/30 02:58:15;;;;;;;15.93;13.43;;;;;;;14.69;100.00;99474.81;5061600;28;20037;-73
2022/09/30 03:00:41;;;;;;;15.02;13.32;;;;;;;14.68;100.00;99477.69;5046218;28;20120;-67
2022/09/30 03:03:45;;;;;;;18.63;14.43;;;;;;;14.66;100.00;99471.63;5048890;28;20160;-67
2022/09/30 03:06:11;;;;;;;18.95;13.88;;;;;;;14.68;100.00;99466.91;5016652;28;20443;-67
2022/09/30 03:08:37;;;;;;;16.42;13.82;;;;;;;14.67;100.00;99471.44;5048582;28;20033;-67
2022/09/30 03:11:03;;;;;;;17.38;13.98;;;;;;;14.70;100.00;99476.50;5049221;28;20333;-67
2022/09/30 03:13:50;;;;;;;15.90;14.20;;;;;;;14.69;100.00;99480.22;5048869;28;20089;-67
2022/09/30 03:16:15;;;;;;;19.27;14.90;;;;;;;14.69;100.00;99477.50;5048748;28;20833;-67
2022/09/30 03:19:02;;;;;;;17.40;15.13;;;;;;;14.66;100.00;99460.84;5048279;28;20044;-67
2022/09/30 03:21:54;;;;;;;17.95;15.07;;;;;;;14.66;100.00;99463.53;5049412;28;20407;-67
2022/09/30 03:24:50;;;;;;;17.63;15.07;;;;;;;14.65;100.00;99468.09;5049458;28;20363;-67
2022/09/30 03:27:24;;;;;;;20.23;15.23;;;;;;;14.66;100.00;99452.72;5059832;28;20414;-67
2022/09/30 03:29:50;;;;;;;17.40;15.45;;;;;;;14.67;100.00;99455.25;5066317;28;20036;-67
2022/09/30 03:32:33;;;;;;;20.67;16.63;;;;;;;14.67;100.00;99449.84;5065678;28;20052;-67
2022/09/30 03:35:16;;;;;;;17.73;15.83;;;;;;;14.67;100.00;99449.03;5068652;28;20036;-67
2022/09/30 03:38:00;;;;;;;20.75;16.95;;;;;;;14.66;100.00;99448.19;5068876;28;20631;-72
2022/09/30 03:40:36;;;;;;;21.90;17.13;;;;;;;14.62;100.00;99446.03;5066880;28;20024;-67
2022/09/30 03:43:26;;;;;;;19.25;16.90;;;;;;;14.70;100.00;99463.00;5068635;28;20021;-67
2022/09/30 03:46:15;;;;;;;22.90;17.75;;;;;;;14.73;100.00;99453.69;5048160;28;20033;-67
2022/09/30 03:48:44;;;;;;;20.95;18.38;;;;;;;14.68;100.00;99462.34;5048658;28;20102;-67
2022/09/30 03:51:12;;;;;;;23.45;18.95;;;;;;;14.69;100.00;99474.81;5061621;28;20074;-67
2022/09/30 03:53:40;;;;;;;23.17;18.42;;;;;;;14.71;100.00;99477.34;5058914;28;20032;-67
2022/09/30 03:56:06;;;;;;;24.48;18.42;;;;;;;14.74;100.00;99494.00;5047160;28;20079;-67
2022/09/30 03:58:31;;;;;;;18.95;16.77;;;;;;;14.57;100.00;99480.84;5049349;28;20032;-67
2022/09/30 04:00:57;;;;;;;18.27;15.57;;;;;;;14.69;100.00;99512.59;5048856;28;20158;-67
2022/09/30 04:03:24;;;;;;;19.45;16.15;;;;;;;14.71;100.00;99494.38;5052357;28;20060;-73
2022/09/30 04:05:50;;;;;;;19.40;16.10;;;;;;;14.72;100.00;99498.75;5061783;28;20033;-73
2022/09/30 04:08:16;;;;;;;18.77;15.82;;;;;;;14.64;100.00;99476.38;5064566;28;20082;-73
2022/09/30 04:10:45;;;;;;;21.13;16.05;;;;;;;14.76;100.00;99496.50;5061612;28;20044;-73
2022/09/30 04:13:11;;;;;;;22.25;15.98;;;;;;;14.75;100.00;99484.91;5060481;28;20067;-73
2022/09/30 04:15:37;;;;;;;19.90;15.45;;;;;;;14.76;100.00;99491.97;5055529;28;20502;-73
2022/09/30 04:18:04;;;;;;;20.70;16.23;;;;;;;14.74;100.00;99485.06;5062752;28;20032;-73
2022/09/30 04:20:30;;;;;;;17.40;15.20;;;;;;;14.75;100.00;99484.91;5052420;28;20029;-73
2022/09/30 04:22:58;;;;;;;18.75;15.38;;;;;;;14.70;100.00;99467.56;5061986;28;20646;-73
2022/09/30 04:25:24;;;;;;;17.52;15.65;;;;;;;14.74;100.00;99463.47;5060192;28;20852;-73
2022/09/30 04:27:49;;;;;;;20.67;14.60;;;;;;;14.76;100.00;99458.72;5057241;28;20044;-73
2022/09/30 04:30:15;;;;;;;19.35;15.45;;;;;;;14.67;100.00;99440.94;5057351;28;20024;-73
2022/09/30 04:32:46;;;;;;;17.08;15.25;;;;;;;14.76;100.00;99448.78;5053809;28;20080;-73
2022/09/30 04:35:12;;;;;;;16.95;15.10;;;;;;;14.75;100.00;99439.00;5064973;28;20032;-73
2022/09/30 04:37:45;;;;;;;20.27;15.43;;;;;;;14.76;100.00;99431.72;5059376;28;20083;-73
2022/09/30 04:40:12;;;;;;;17.17;15.35;;;;;;;14.74;100.00;99425.69;5054582;28;20567;-73
2022/09/30 04:42:39;;;;;;;15.63;13.77;;;;;;;14.71;100.00;99432.31;5053630;28;20059;-73
2022/09/30 04:45:06;;;;;;;17.58;15.20;;;;;;;14.79;100.00;99445.72;5057752;28;20035;-73
2022/09/30 04:47:31;;;;;;;18.65;14.60;;;;;;;14.71;100.00;99439.56;5059158;28;20032;-73
2022/09/30 04:49:57;;;;;;;16.13;14.05;;;;;;;14.76;100.00;99469.53;5052715;28;20021;-73
2022/09/30 04:52:22;;;;;;;16.60;14.85;;;;;;;14.72;100.00;99466.34;5052882;28;20043;-73
2022/09/30 04:54:48;;;;;;;18.83;15.55;;;;;;;14.72;100.00;99462.81;5060755;28;20024;-72
2022/09/30 04:57:13;;;;;;;17.58;15.05;;;;;;;14.76;100.00;99485.72;5058036;28;20108;-73
2022/09/30 04:59:39;;;;;;;17.50;15.52;;;;;;;14.63;100.00;99480.09;5061049;28;20025;-73
2022/09/30 05:02:05;;;;;;;17.95;14.35;;;;;;;14.76;100.00;99508.16;5054433;28;20082;-73
2022/09/30 05:04:32;;;;;;;20.55;14.95;;;;;;;14.61;100.00;99499.16;5057272;28;20309;-67
2022/09/30 05:06:59;;;;;;;16.67;14.77;;;;;;;14.64;100.00;99531.19;5047686;28;20158;-67
2022/09/30 05:09:24;;;;;;;17.50;15.70;;;;;;;14.76;100.00;99605.34;5049645;28;20025;-67
2022/09/30 05:11:50;;;;;;;17.98;15.32;;;;;;;14.80;100.00;99606.66;5048237;28;20052;-68
2022/09/30 05:14:16;;;;;;;17.98;14.75;;;;;;;14.67;100.00;99582.09;5047514;28;20387;-67
2022/09/30 05:16:42;;;;;;;23.50;16.65;;;;;;;14.82;100.00;99601.06;5046161;28;20033;-68
2022/09/30 05:19:07;;;;;;;17.33;15.32;;;;;;;14.84;100.00;99602.59;5067361;28;20051;-68
2022/09/30 05:21:32;;;;;;;19.42;17.33;;;;;;;14.85;100.00;99596.16;5066550;28;20028;-68
2022/09/30 05:23:58;;;;;;;18.92;15.93;;;;;;;14.89;100.00;99593.94;5066766;28;20040;-68
2022/09/30 05:26:23;;;;;;;20.33;15.45;;;;;;;14.91;100.00;99590.06;5066896;28;20085;-68
2022/09/30 05:28:49;;;;;;;18.70;15.70;;;;;;;14.93;100.00;99574.50;5056064;28;20048;-67
2022/09/30 05:31:15;;;;;;;20.60;16.95;;;;;;;14.95;100.00;99580.56;5064690;28;20093;-67
2022/09/30 05:33:40;;;;;;;18.38;16.38;;;;;;;14.98;100.00;99569.41;5046655;28;20489;-67
2022/09/30 05:36:08;;;;;;;21.33;16.90;;;;;;;14.88;100.00;99559.88;5062466;28;20020;-68
2022/09/30 05:38:34;;;;;;;19.55;16.05;;;;;;;15.06;100.00;99571.22;5065669;28;20031;-67
2022/09/30 05:41:10;;;;;;;18.95;16.17;;;;;;;14.98;100.00;99555.06;5049653;28;20033;-68
2022/09/30 05:43:40;;;;;;;17.98;15.90;;;;;;;15.05;100.00;99562.25;5048228;28;20120;-67
2022/09/30 05:46:06;;;;;;;17.05;15.07;;;;;;;15.05;100.00;99562.25;5050763;28;20112;-67
2022/09/30 05:48:33;;;;;;;19.30;16.17;;;;;;;15.07;100.00;99554.81;5065780;28;20028;-67
2022/09/30 05:51:00;;;;;;;18.00;15.85;;;;;;;15.05;100.00;99543.34;5054992;28;20493;-67
2022/09/30 05:53:27;;;;;;;17.70;15.80;;;;;;;14.98;100.00;99533.44;5059917;28;20024;-67
2022/09/30 05:55:52;;;;;;;17.20;15.18;;;;;;;15.06;100.00;99553.13;5054295;28;20499;-68
2022/09/30 05:58:19;;;;;;;16.52;14.35;;;;;;;15.10;100.00;99551.75;5058787;28;20064;-68
2022/09/30 06:00:46;;;;;;;16.20;14.55;;;;;;;15.02;100.00;99532.91;5059798;28;20028;-68
2022/09/30 06:03:12;;;;;;;16.33;13.73;;;;;;;15.09;100.00;99541.97;5057858;28;20405;-73
2022/09/30 06:05:38;;;;;;;15.75;13.65;;;;;;;15.14;100.00;99555.78;5059929;28;20063;-73
2022/09/30 06:08:06;;;;;;;14.52;13.02;;;;;;;15.11;100.00;99566.94;5063478;28;20021;-73
2022/09/30 06:10:33;;;;;;;16.75;14.57;;;;;;;15.14;100.00;99577.38;5063509;28;20032;-73
2022/09/30 06:12:59;;;;;;;15.55;13.93;;;;;;;15.13;100.00;99567.56;5061050;28;20027;-73
2022/09/30 06:15:25;;;;;;;15.13;12.65;;;;;;;14.99;100.00;99537.84;5063544;28;21515;-73
2022/09/30 06:17:54;;;;;;;16.25;12.52;;;;;;;15.15;100.00;99562.84;5054556;28;20460;-74
2022/09/30 06:20:19;;;;;;;16.30;11.82;;;;;;;15.19;100.00;99574.97;5059376;28;20046;-74
2022/09/30 06:22:45;;;;;;;14.25;12.38;;;;;;;15.22;100.00;99569.19;5059456;28;20108;-74
2022/09/30 06:25:10;;;;;;;15.20;11.98;;;;;;;15.20;100.00;99565.84;5064552;28;20485;-74
2022/09/30 06:27:37;;;;;;;13.52;11.63;;;;;;;15.18;100.00;99557.09;5056602;28;20042;-74
2022/09/30 06:30:04;;;;;;;15.15;10.90;;;;;;;15.18;100.00;99565.19;5057694;28;20020;-74
2022/09/30 06:32:30;;;;;;;13.73;10.60;;;;;;;15.25;100.00;99576.94;5056477;28;20490;-73
2022/09/30 06:34:56;;;;;;;11.65;10.45;;;;;;;15.28;100.00;99581.97;5065295;28;20036;-74
2022/09/30 06:37:22;;;;;;;11.25;10.10;;;;;;;15.31;100.00;99584.31;5061346;28;20395;-74
2022/09/30 06:39:49;;;;;;;10.77;9.68;;;;;;;15.35;100.00;99587.50;5061082;28;20031;-74
2022/09/30 06:42:16;;;;;;;11.32;10.20;;;;;;;15.32;100.00;99583.28;5054392;28;20430;-74
2022/09/30 06:44:42;;;;;;;13.65;10.05;;;;;;;15.39;100.00;99586.16;5063509;28;20514;-74
2022/09/30 06:47:13;;;;;;;10.38;9.27;;;;;;;15.31;100.00;99575.34;5064600;28;20040;-74
2022/09/30 06:49:39;;;;;;;14.55;9.52;;;;;;;15.41;100.00;99587.63;5056468;28;20475;-74
2022/09/30 06:52:05;;;;;;;13.70;10.35;;;;;;;15.44;100.00;99592.66;5059562;28;20052;-74
2022/09/30 06:54:30;;;;;;;13.27;9.93;;;;;;;15.39;100.00;99578.88;5057873;28;20031;-74
2022/09/30 06:56:56;;;;;;;14.77;9.30;;;;;;;15.53;100.00;99609.66;5060992;28;20037;-74
2022/09/30 06:59:25;;;;;;;11.68;9.35;;;;;;;15.58;100.00;99605.38;5054350;28;20024;-74
2022/09/30 07:01:50;;;;;;;12.90;9.63;;;;;;;15.62;100.00;99609.41;5059893;28;20036;-74
2022/09/30 07:04:16;;;;;;;12.13;8.50;;;;;;;15.65;100.00;99614.44;5056294;28;20024;-73
2022/09/30 07:06:41;;;;;;;12.32;8.90;;;;;;;15.70;100.00;99606.59;5059304;28;20032;-74
2022/09/30 07:09:09;;;;;;;10.38;8.10;;;;;;;15.84;100.00;99622.00;5058690;28;20031;-73
2022/09/30 07:11:36;;;;;;;9.25;7.30;;;;;;;15.89;100.00;99627.69;5062277;28;20039;-73
2022/09/30 07:14:03;;;;;;;8.88;7.03;;;;;;;15.89;100.00;99624.16;5057116;28;20052;-74
2022/09/30 07:16:30;;;;;;;11.07;7.53;;;;;;;16.00;100.00;99637.22;5059920;28;20090;-74
2022/09/30 07:18:56;;;;;;;9.10;6.05;;;;;;;15.94;100.00;99625.25;5054408;28;20048;-67
2022/09/30 07:21:22;;;;;;;8.15;5.88;;;;;;;16.03;100.00;99625.19;5057702;28;20048;-67
2022/09/30 07:23:48;;;;;;;7.32;5.55;;;;;;;16.11;100.00;99638.59;5062591;28;20627;-67
2022/09/30 07:26:19;;;;;;;7.65;4.60;;;;;;;16.20;100.00;99624.81;5051529;28;20510;-74
2022/09/30 07:28:44;;;;;;;10.48;5.70;;;;;;;16.48;100.00;99638.53;5060209;28;20483;-74
2022/09/30 07:31:17;;;;;;;8.75;4.90;;;;;;;16.85;100.00;99638.38;5052994;28;20017;-74
2022/09/30 07:33:43;;;;;;;7.55;4.85;;;;;;;17.38;100.00;99633.28;5059295;28;20271;-74
2022/09/30 07:36:10;;;;;;;4.72;3.40;;;;;;;17.99;100.00;99638.00;5062504;28;20497;-74
2022/09/30 07:38:39;;;;;;;4.80;3.40;;;;;;;18.65;100.00;99639.22;5059456;28;20036;-74
2022/09/30 07:41:11;;;;;;;3.55;2.85;;;;;;;19.33;100.00;99639.03;5050596;28;20035;-74
2022/09/30 07:43:39;;;;;;;3.05;2.53;;;;;;;19.67;98.05;99647.00;5045713;28;20060;-67
2022/09/30 07:46:11;;;;;;;4.45;2.75;;;;;;;19.76;94.87;99656.63;5064146;28;20024;-67
2022/09/30 07:51:07;;;;;;;4.20;2.50;;;;;;;19.46;95.45;99665.41;5059607;28;20053;-67
2022/09/30 07:53:33;;;;;;;6.28;2.60;;;;;;;19.33;96.14;99674.41;5048142;28;20032;-67
2022/09/30 07:56:03;;;;;;;5.60;2.35;;;;;;;19.16;97.07;99674.94;5047290;28;20032;-67
2022/09/30 07:58:29;;;;;;;3.03;2.10;;;;;;;19.03;96.59;99670.31;5064440;28;20039;-67
2022/09/30 08:00:54;;;;;;;3.53;2.58;;;;;;;18.90;97.69;99667.56;5054529;28;20028;-67
2022/09/30 08:03:20;;;;;;;4.60;2.80;;;;;;;18.78;98.91;99685.47;5056523;28;20021;-67
2022/09/30 08:05:47;;;;;;;4.03;2.80;;;;;;;18.67;100.00;99674.34;5061480;28;20044;-67
2022/09/30 08:08:14;;;;;;;4.20;2.45;;;;;;;18.83;100.00;99693.84;5050663;28;20028;-67
2022/09/30 08:10:40;;;;;;;4.68;2.58;;;;;;;19.48;100.00;99685.91;5061121;28;20029;-67
2022/09/30 08:13:06;;;;;;;4.75;2.65;;;;;;;20.45;94.33;99684.25;5055795;28;20489;-67
2022/09/30 08:15:31;;;;;;;4.70;2.03;;;;;;;21.84;85.11;99678.75;5061430;28;20025;-67
2022/09/30 08:17:57;;;;;;;2.33;1.88;;;;;;;23.19;74.98;99680.25;5052025;28;20041;-67
2022/09/30 08:20:23;;;;;;;4.35;2.05;;;;;;;23.87;70.33;99676.06;5064054;28;20042;-67
2022/09/30 08:22:54;;;;;;;3.08;1.95;;;;;;;24.13;68.72;99683.88;5053057;28;20020;-68
2022/09/30 08:25:22;;;;;;;4.65;1.85;;;;;;;23.89;68.63;99695.03;5056790;28;20033;-67
2022/09/30 08:27:47;;;;;;;3.47;1.55;;;;;;;23.58;68.75;99708.97;5049369;28;20047;-67
2022/09/30 08:30:13;;;;;;;2.22;1.60;;;;;;;23.29;71.02;99699.72;5062341;28;20020;-67
2022/09/30 08:32:38;;;;;;;1.98;1.70;;;;;;;23.70;70.31;99701.63;5051790;28;20135;-67
2022/09/30 08:35:04;;;;;;;3.05;1.20;;;;;;;23.99;66.62;99704.34;5058697;28;20143;-67
2022/09/30 08:37:30;;;;;;;2.60;1.23;;;;;;;25.48;60.88;99708.03;5057186;28;20089;-67
2022/09/30 08:39:55;;;;;;;2.67;1.33;;;;;;;25.81;60.15;99720.97;5055626;28;20029;-74
2022/09/30 08:42:32;;;;;;;2.85;1.20;;;;;;;25.90;57.70;99714.84;5056322;28;20040;-74
2022/09/30 08:45:29;;;;;;;2.08;1.02;;;;;;;27.27;53.44;99702.91;5053100;28;20035;-74
2022/09/30 08:48:19;;;;;;;2.80;1.20;;;;;;;27.63;51.15;99710.47;5051833;28;20021;-74
2022/09/30 08:51:14;;;;;;;1.70;1.08;;;;;;;27.78;50.58;99718.91;5054749;28;20399;-74
2022/09/30 08:53:42;;;;;;;3.80;1.20;;;;;;;27.35;51.61;99723.66;5051109;28;20029;-74
2022/09/30 08:56:18;;;;;;;2.22;0.80;;;;;;;27.81;50.13;99723.91;5055343;28;20524;-74
2022/09/30 08:58:45;;;;;;;2.95;0.80;;;;;;;28.28;48.08;99713.88;5053518;28;20472;-74
2022/09/30 09:01:35;;;;;;;1.23;0.80;;;;;;;27.67;50.18;99727.34;5055512;28;20062;-74
2022/09/30 09:04:02;;;;;;;5.65;0.90;;;;;;;28.46;47.26;99729.22;5060724;28;20047;-74
2022/09/30 09:07:00;;;;;;;1.45;0.80;;;;;;;29.39;44.56;99715.41;5055499;28;20067;-74
2022/09/30 09:09:42;;;;;;;2.90;0.90;;;;;;;30.01;43.30;99718.88;5044104;28;20415;-74
2022/09/30 09:12:34;;;;;;;3.45;0.75;;;;;;;30.09;43.25;99717.50;5058564;28;20380;-74
2022/09/30 09:15:18;;;;;;;2.80;0.90;;;;;;;30.45;41.37;99728.31;5056609;28;20055;-74
2022/09/30 09:17:56;;;;;;;0.73;0.73;;;;;;;30.42;41.18;99739.94;5060673;28;20103;-74
2022/09/30 09:20:24;;;;;;;1.88;0.70;;;;;;;29.70;42.38;99731.00;5062120;28;20032;-74
2022/09/30 09:22:51;;;;;;;0.47;0.47;;;;;;;30.20;41.36;99741.31;5062079;28;20032;-74
2022/09/30 09:25:19;;;;;;;1.40;0.75;;;;;;;29.39;43.07;99734.75;5064745;28;20533;-74
2022/09/30 09:27:54;;;;;;;1.48;0.98;;;;;;;28.74;43.86;99753.72;5062599;28;20466;-74
2022/09/30 09:30:27;;;;;;;0.98;0.70;;;;;;;27.86;45.85;99756.25;5057924;28;20029;-73
2022/09/30 09:32:56;;;;;;;1.02;0.80;;;;;;;28.27;44.93;99759.13;5062955;28;20041;-73
2022/09/30 09:35:39;;;;;;;3.00;0.80;;;;;;;28.85;44.08;99760.13;5060576;28;20033;-72
2022/09/30 09:38:34;;;;;;;1.02;0.70;;;;;;;28.88;43.66;99754.09;5058589;28;20422;-73
2022/09/30 09:41:42;;;;;;;2.13;0.88;;;;;;;28.50;44.64;99758.78;5055624;28;20036;-73
2022/09/30 09:44:32;;;;;;;1.42;0.98;;;;;;;27.73;46.40;99762.13;5058642;28;20499;-73
2022/09/30 09:47:04;;;;;;;1.20;0.80;;;;;;;27.98;45.41;99767.94;5054726;28;20120;-73
2022/09/30 09:49:38;;;;;;;1.95;0.88;;;;;;;27.85;45.30;99765.59;5055717;28;20033;-73
2022/09/30 09:52:11;;;;;;;1.10;1.00;;;;;;;27.08;47.07;99781.41;5056920;28;20090;-72
2022/09/30 09:54:40;;;;;;;2.05;0.90;;;;;;;26.43;49.02;99777.63;5057440;28;20028;-72
2022/09/30 09:57:09;;;;;;;1.02;0.80;;;;;;;25.70;51.17;99791.38;5050086;28;20037;-72
2022/09/30 09:59:35;;;;;;;3.67;0.93;;;;;;;25.08;53.32;99795.00;5056362;28;20033;-72
2022/09/30 10:02:01;;;;;;;1.23;1.00;;;;;;;24.81;54.00;99798.47;5050775;28;20041;-64
2022/09/30 10:04:29;;;;;;;3.90;0.70;;;;;;;24.44;55.05;99792.38;5052840;28;20062;-64
2022/09/30 10:07:00;;;;;;;0.82;0.70;;;;;;;24.01;56.71;99797.25;5062700;28;20032;-65
2022/09/30 10:09:31;;;;;;;2.75;0.68;;;;;;;23.57;58.80;99808.63;5059339;28;20052;-64
2022/09/30 10:12:05;;;;;;;1.17;0.95;;;;;;;23.10;60.15;99812.09;5054957;28;20039;-63
2022/09/30 10:14:46;;;;;;;0.95;0.63;;;;;;;22.72;61.97;99825.97;5052432;28;20098;-63
2022/09/30 10:17:24;;;;;;;1.50;0.85;;;;;;;22.39;63.98;99822.66;5060801;28;20356;-63
2022/09/30 10:19:52;;;;;;;2.55;0.88;;;;;;;22.22;64.36;99832.44;5064965;28;20044;-65
2022/09/30 10:22:24;;;;;;;0.70;0.70;;;;;;;21.86;65.75;99818.63;5068175;28;20082;-64
2022/09/30 10:24:49;;;;;;;1.30;0.80;;;;;;;21.56;68.22;99831.97;5064149;28;20088;-64
2022/09/30 10:27:35;;;;;;;0.73;0.57;;;;;;;21.45;69.38;99850.91;5053920;28;20116;-64
2022/09/30 10:30:01;;;;;;;1.88;0.70;;;;;;;21.21;70.80;99829.78;5065263;28;20071;-64
2022/09/30 10:32:28;;;;;;;2.72;0.75;;;;;;;21.31;68.60;99843.84;5052560;28;20069;-64
2022/09/30 10:34:59;;;;;;;0.45;0.40;;;;;;;21.14;69.59;99851.63;5062858;28;20024;-65
2022/09/30 10:37:24;;;;;;;1.35;0.73;;;;;;;21.00;70.50;99851.88;5051591;28;20043;-62
2022/09/30 10:39:53;;;;;;;3.03;0.73;;;;;;;20.90;71.95;99863.19;5046126;28;20037;-64
2022/09/30 10:42:23;;;;;;;1.98;0.52;;;;;;;20.82;72.98;99857.94;5051919;28;20494;-65
2022/09/30 10:44:51;;;;;;;1.70;0.50;;;;;;;20.82;73.61;99860.69;5054917;28;20500;-64
2022/09/30 10:47:20;;;;;;;1.10;0.57;;;;;;;20.73;73.50;99831.13;5057956;28;20547;-63
2022/09/30 10:49:50;;;;;;;2.40;0.70;;;;;;;20.99;73.22;99861.13;5063110;28;20119;-64
2022/09/30 10:52:23;;;;;;;0.88;0.60;;;;;;;21.00;72.76;99851.88;5052414;28;20703;-64
2022/09/30 10:54:57;;;;;;;0.80;0.60;;;;;;;21.02;72.48;99863.41;5062605;28;20032;-64
2022/09/30 10:57:22;;;;;;;;;;;;;;;21.02;73.25;99875.16;5060346;28;20047;-64
2022/09/30 10:59:50;;;;;;;1.95;0.70;;;;;;;21.03;72.80;99882.31;5058841;28;19971;-64
2022/09/30 11:02:40;;;;;;;1.63;0.73;;;;;;;20.99;72.55;99882.94;5065496;28;20079;-63
2022/09/30 11:05:16;;;;;;;1.52;0.98;;;;;;;20.91;72.92;99886.69;5057549;28;20054;-64
2022/09/30 11:07:51;;;;;;;1.40;0.70;;;;;;;20.81;73.93;99872.63;5055382;28;20029;-63
2022/09/30 11:10:38;;;;;;;1.77;1.05;;;;;;;21.04;71.64;99894.88;5066356;28;20062;-72
2022/09/30 11:13:29;;;;;;;0.73;0.68;;;;;;;21.02;72.51;99887.97;5060580;28;20025;-72
2022/09/30 11:16:14;;;;;;;5.28;0.90;;;;;;;21.03;71.76;99879.56;5061521;28;20372;-72
2022/09/30 11:19:06;;;;;;;2.08;1.00;;;;;;;21.22;71.14;99900.50;5061926;28;20471;-72
2022/09/30 11:21:42;;;;;;;0.93;0.70;;;;;;;21.39;69.98;99909.91;5063899;28;20048;-72
2022/09/30 11:24:31;;;;;;;2.63;0.77;;;;;;;21.37;70.14;99909.28;5061514;28;20107;-72
2022/09/30 11:27:16;;;;;;;1.25;0.80;;;;;;;21.31;69.39;99909.31;5067206;28;20029;-72
2022/09/30 11:29:48;;;;;;;;;;;;;;;21.31;69.73;99918.31;5074704;28;20052;-74
2022/09/30 11:32:40;;;;;;;1.13;0.60;;;;;;;21.30;69.85;99913.06;5078298;28;19917;-70
2022/09/30 11:35:40;;;;;;;1.40;0.75;;;;;;;21.24;70.32;99919.38;5055236;28;20047;-73
2022/09/30 11:38:09;;;;;;;0.93;0.75;;;;;;;21.19;70.08;99920.03;5057369;28;20043;-74
2022/09/30 11:40:50;;;;;;;0.95;0.70;;;;;;;21.14;70.95;99924.44;5061473;28;20028;-72
2022/09/30 11:43:33;;;;;;;0.65;0.60;;;;;;;21.10;70.51;99921.31;5057352;28;20028;-72
2022/09/30 11:46:10;;;;;;;3.55;0.90;;;;;;;21.00;71.77;99931.81;5059521;28;20044;-72